KQA254 HKJK-FMCZ
Flight info
| Callsign | KQA254 |
|---|---|
| Flight time | 2h 5m |
| Altitude | 35000 |
| Route | APNOM2E GABSO UT913 KINAN UB790 HAI |
| Aircraft | E190/M-SDE3GILORVW/S |
Departure
| Time | 2026-05-04 11:43 |
|---|---|
| Airport | Jomo Kenyatta International Airport (HKJK) |
Arrival
| Time | 2026-05-04 13:49 |
|---|---|
| Airport | Dzaoudzi Pamandzi International Airport (FMCZ) |
| Time | Latitude | Longitude | Altitude | Speed | Heading |
|---|---|---|---|---|---|
| 2026-05-04 11:27 | -1.32956 | 36.92345 | 5321 ft | 7 kts | 122° |
| 2026-05-04 11:28 | -1.32952 | 36.92340 | 5321 ft | 0 kts | 122° |
| 2026-05-04 11:35 | -1.32949 | 36.92334 | 5322 ft | 2 kts | 122° |
| 2026-05-04 11:35 | -1.32938 | 36.92317 | 5314 ft | 3 kts | 122° |
| 2026-05-04 11:35 | -1.32927 | 36.92299 | 5314 ft | 3 kts | 122° |
| 2026-05-04 11:35 | -1.32917 | 36.92283 | 5315 ft | 3 kts | 108° |
| 2026-05-04 11:36 | -1.32914 | 36.92265 | 5315 ft | 3 kts | 73° |
| 2026-05-04 11:36 | -1.32922 | 36.92248 | 5322 ft | 3 kts | 38° |
| 2026-05-04 11:36 | -1.32933 | 36.92241 | 5313 ft | 1 kts | 20° |
| 2026-05-04 11:36 | -1.32947 | 36.92236 | 5317 ft | 2 kts | 20° |
| 2026-05-04 11:37 | -1.32951 | 36.92235 | 5317 ft | 1 kts | 20° |
| 2026-05-04 11:39 | -1.32949 | 36.92236 | 5323 ft | 1 kts | 20° |
| 2026-05-04 11:40 | -1.32899 | 36.91973 | 5334 ft | 12 kts | 267° |
| 2026-05-04 11:41 | -1.32889 | 36.91901 | 5332 ft | 9 kts | 278° |
| 2026-05-04 11:41 | -1.32882 | 36.91848 | 5334 ft | 7 kts | 278° |
| 2026-05-04 11:41 | -1.32873 | 36.91791 | 5334 ft | 10 kts | 278° |
| 2026-05-04 11:41 | -1.32850 | 36.91715 | 5338 ft | 14 kts | 317° |
| 2026-05-04 11:42 | -1.32772 | 36.91660 | 5336 ft | 11 kts | 338° |
| 2026-05-04 11:42 | -1.32720 | 36.91691 | 5336 ft | 9 kts | 53° |
| 2026-05-04 11:42 | -1.32609 | 36.91842 | 5332 ft | 55 kts | 53° |
| 2026-05-04 11:42 | -1.32261 | 36.92317 | 5315 ft | 113 kts | 53° |
| 2026-05-04 11:43 | -1.31688 | 36.93100 | 5302 ft | 165 kts | 54° |
| 2026-05-04 11:43 | -1.30936 | 36.94128 | 5463 ft | 193 kts | 54° |
| 2026-05-04 11:43 | -1.30257 | 36.95333 | 5894 ft | 216 kts | 74° |
| 2026-05-04 11:43 | -1.30078 | 36.96906 | 6307 ft | 242 kts | 88° |
| 2026-05-04 11:44 | -1.29959 | 36.98687 | 6820 ft | 245 kts | 86° |
| 2026-05-04 11:44 | -1.29778 | 37.00356 | 7874 ft | 243 kts | 83° |
| 2026-05-04 11:44 | -1.29544 | 37.02065 | 8434 ft | 255 kts | 82° |
| 2026-05-04 11:44 | -1.29298 | 37.03888 | 8861 ft | 280 kts | 83° |
| 2026-05-04 11:45 | -1.29041 | 37.05858 | 9616 ft | 289 kts | 83° |
| 2026-05-04 11:45 | -1.28774 | 37.07867 | 10533 ft | 295 kts | 83° |
| 2026-05-04 11:45 | -1.28495 | 37.09987 | 10936 ft | 319 kts | 82° |
| 2026-05-04 11:45 | -1.28286 | 37.12251 | 11434 ft | 334 kts | 91° |
| 2026-05-04 11:46 | -1.28852 | 37.14529 | 12136 ft | 343 kts | 117° |
| 2026-05-04 11:46 | -1.30397 | 37.16349 | 12911 ft | 353 kts | 143° |
| 2026-05-04 11:46 | -1.32659 | 37.17344 | 13831 ft | 359 kts | 165° |
| 2026-05-04 11:46 | -1.35121 | 37.17835 | 14653 ft | 363 kts | 168° |
| 2026-05-04 11:47 | -1.37623 | 37.18312 | 15445 ft | 368 kts | 167° |
| 2026-05-04 11:47 | -1.40147 | 37.18840 | 16240 ft | 373 kts | 166° |
| 2026-05-04 11:47 | -1.42701 | 37.19386 | 17012 ft | 378 kts | 167° |
| 2026-05-04 11:47 | -1.45285 | 37.19937 | 17772 ft | 382 kts | 166° |
| 2026-05-04 11:48 | -1.47904 | 37.20491 | 18469 ft | 387 kts | 166° |
| 2026-05-04 11:48 | -1.50551 | 37.21046 | 19087 ft | 390 kts | 167° |
| 2026-05-04 11:48 | -1.53216 | 37.21595 | 19762 ft | 391 kts | 167° |
| 2026-05-04 11:48 | -1.55881 | 37.22143 | 20406 ft | 391 kts | 166° |
| 2026-05-04 11:49 | -1.58562 | 37.22690 | 20912 ft | 396 kts | 168° |
| 2026-05-04 11:49 | -1.61269 | 37.23222 | 21497 ft | 398 kts | 168° |
| 2026-05-04 11:49 | -1.64000 | 37.23750 | 21944 ft | 403 kts | 168° |
| 2026-05-04 11:49 | -1.66764 | 37.24272 | 22497 ft | 404 kts | 168° |
| 2026-05-04 11:50 | -1.69537 | 37.24791 | 23026 ft | 407 kts | 168° |
| 2026-05-04 11:50 | -1.72335 | 37.25299 | 23565 ft | 408 kts | 168° |
| 2026-05-04 11:50 | -1.75149 | 37.25804 | 23977 ft | 412 kts | 168° |
| 2026-05-04 11:50 | -1.77985 | 37.26311 | 24310 ft | 417 kts | 169° |
| 2026-05-04 11:51 | -1.80842 | 37.26803 | 24705 ft | 420 kts | 169° |
| 2026-05-04 11:51 | -1.83725 | 37.27297 | 25038 ft | 423 kts | 169° |
| 2026-05-04 11:51 | -1.86599 | 37.27778 | 25406 ft | 426 kts | 169° |
| 2026-05-04 11:51 | -1.89529 | 37.28271 | 25745 ft | 429 kts | 169° |
| 2026-05-04 11:52 | -1.92482 | 37.28764 | 26086 ft | 431 kts | 169° |
| 2026-05-04 11:52 | -1.95453 | 37.29250 | 26387 ft | 434 kts | 169° |
| 2026-05-04 11:52 | -1.98434 | 37.29733 | 26719 ft | 436 kts | 169° |
| 2026-05-04 11:52 | -2.01441 | 37.30215 | 27048 ft | 438 kts | 169° |
| 2026-05-04 11:53 | -2.04462 | 37.30695 | 27376 ft | 440 kts | 169° |
| 2026-05-04 11:53 | -2.07495 | 37.31172 | 27682 ft | 443 kts | 170° |
| 2026-05-04 11:53 | -2.10547 | 37.31646 | 28008 ft | 445 kts | 170° |
| 2026-05-04 11:53 | -2.13616 | 37.32120 | 28321 ft | 447 kts | 170° |
| 2026-05-04 11:55 | -2.35311 | 37.35366 | 30643 ft | 448 kts | 170° |
| 2026-05-04 11:55 | -2.38388 | 37.35812 | 30970 ft | 446 kts | 170° |
| 2026-05-04 11:56 | -2.41455 | 37.36252 | 31306 ft | 444 kts | 170° |
| 2026-05-04 11:56 | -2.44513 | 37.36688 | 31625 ft | 443 kts | 171° |
| 2026-05-04 11:56 | -2.47557 | 37.37117 | 31953 ft | 442 kts | 171° |
| 2026-05-04 11:56 | -2.50598 | 37.37540 | 32285 ft | 440 kts | 171° |
| 2026-05-04 11:57 | -2.53627 | 37.37961 | 32628 ft | 439 kts | 169° |
| 2026-05-04 11:57 | -2.56522 | 37.38847 | 32880 ft | 436 kts | 150° |
| 2026-05-04 11:57 | -2.59064 | 37.40480 | 33228 ft | 433 kts | 145° |
| 2026-05-04 11:57 | -2.61571 | 37.42142 | 33568 ft | 432 kts | 147° |
| 2026-05-04 11:58 | -2.64097 | 37.43754 | 33868 ft | 431 kts | 147° |
| 2026-05-04 11:58 | -2.66634 | 37.45345 | 34167 ft | 429 kts | 147° |
| 2026-05-04 11:58 | -2.69167 | 37.46916 | 34409 ft | 429 kts | 148° |
| 2026-05-04 11:58 | -2.71712 | 37.48484 | 34633 ft | 429 kts | 147° |
| 2026-05-04 11:59 | -2.74248 | 37.50039 | 34887 ft | 427 kts | 148° |
| 2026-05-04 11:59 | -2.76785 | 37.51591 | 35094 ft | 428 kts | 148° |
| 2026-05-04 11:59 | -2.79343 | 37.53152 | 35090 ft | 433 kts | 148° |
| 2026-05-04 12:00 | -2.84549 | 37.56323 | 35109 ft | 443 kts | 148° |
| 2026-05-04 12:00 | -2.89866 | 37.59551 | 35147 ft | 451 kts | 148° |
| 2026-05-04 12:01 | -2.95279 | 37.62833 | 35210 ft | 458 kts | 148° |
| 2026-05-04 12:01 | -2.97997 | 37.64480 | 35443 ft | 456 kts | 148° |
| 2026-05-04 12:02 | -3.14064 | 37.74224 | 36071 ft | 450 kts | 147° |
| 2026-05-04 12:03 | -3.19418 | 37.77471 | 36070 ft | 450 kts | 147° |
| 2026-05-04 12:03 | -3.24769 | 37.80716 | 36073 ft | 450 kts | 147° |
| 2026-05-04 12:04 | -3.30118 | 37.83963 | 36048 ft | 449 kts | 147° |
| 2026-05-04 12:04 | -3.35467 | 37.87209 | 36057 ft | 450 kts | 147° |
| 2026-05-04 12:05 | -3.40816 | 37.90455 | 36045 ft | 450 kts | 147° |
| 2026-05-04 12:05 | -3.46166 | 37.93702 | 36044 ft | 450 kts | 147° |
| 2026-05-04 12:06 | -3.51518 | 37.96950 | 36038 ft | 450 kts | 147° |
| 2026-05-04 12:06 | -3.56874 | 38.00203 | 36040 ft | 450 kts | 147° |
| 2026-05-04 12:07 | -3.62231 | 38.03457 | 36020 ft | 451 kts | 147° |
| 2026-05-04 12:07 | -3.67564 | 38.06749 | 36024 ft | 451 kts | 146° |
| 2026-05-04 12:08 | -3.72905 | 38.10044 | 36009 ft | 451 kts | 146° |
| 2026-05-04 12:08 | -3.78245 | 38.13337 | 36007 ft | 450 kts | 146° |
| 2026-05-04 12:09 | -3.83580 | 38.16628 | 36004 ft | 450 kts | 146° |
| 2026-05-04 12:09 | -3.88878 | 38.19895 | 35987 ft | 450 kts | 146° |
| 2026-05-04 12:10 | -3.94215 | 38.23187 | 35992 ft | 450 kts | 146° |
| 2026-05-04 12:10 | -3.99550 | 38.26479 | 35989 ft | 450 kts | 146° |
| 2026-05-04 12:11 | -4.04887 | 38.29771 | 35972 ft | 450 kts | 146° |
| 2026-05-04 12:11 | -4.10236 | 38.33041 | 35971 ft | 450 kts | 146° |
| 2026-05-04 12:12 | -4.15582 | 38.36308 | 35973 ft | 450 kts | 146° |
| 2026-05-04 12:12 | -4.20930 | 38.39577 | 35968 ft | 449 kts | 146° |
| 2026-05-04 12:14 | -4.42277 | 38.52634 | 35981 ft | 449 kts | 146° |
| 2026-05-04 12:15 | -4.47619 | 38.55899 | 35979 ft | 449 kts | 147° |
| 2026-05-04 12:15 | -4.52955 | 38.59159 | 35988 ft | 450 kts | 146° |
| 2026-05-04 12:16 | -4.58295 | 38.62434 | 35982 ft | 450 kts | 146° |
| 2026-05-04 12:16 | -4.63634 | 38.65706 | 35984 ft | 450 kts | 146° |
| 2026-05-04 12:17 | -4.68964 | 38.68971 | 35978 ft | 449 kts | 146° |
| 2026-05-04 12:17 | -4.74293 | 38.72236 | 35981 ft | 449 kts | 146° |
| 2026-05-04 12:18 | -4.79630 | 38.75505 | 35982 ft | 450 kts | 146° |
| 2026-05-04 12:18 | -4.84068 | 38.78224 | 35974 ft | 449 kts | 146° |
| 2026-05-04 12:19 | -4.89418 | 38.81469 | 35975 ft | 450 kts | 147° |
| 2026-05-04 12:19 | -4.94819 | 38.84630 | 35972 ft | 450 kts | 147° |
| 2026-05-04 12:20 | -5.00221 | 38.87803 | 35967 ft | 450 kts | 147° |
| 2026-05-04 12:20 | -5.05612 | 38.90977 | 35969 ft | 450 kts | 147° |
| 2026-05-04 12:21 | -5.11012 | 38.94158 | 35962 ft | 450 kts | 147° |
| 2026-05-04 12:21 | -5.16411 | 38.97339 | 35964 ft | 450 kts | 147° |
| 2026-05-04 12:22 | -5.21810 | 39.00521 | 35961 ft | 450 kts | 147° |
| 2026-05-04 12:22 | -5.27208 | 39.03701 | 35962 ft | 450 kts | 147° |
| 2026-05-04 12:23 | -5.32605 | 39.06883 | 35956 ft | 450 kts | 147° |
| 2026-05-04 12:23 | -5.38013 | 39.10073 | 35958 ft | 451 kts | 147° |
| 2026-05-04 12:24 | -5.43421 | 39.13262 | 35955 ft | 451 kts | 147° |
| 2026-05-04 12:24 | -5.48819 | 39.16448 | 35954 ft | 450 kts | 147° |
| 2026-05-04 12:25 | -5.54217 | 39.19634 | 35951 ft | 450 kts | 147° |
| 2026-05-04 12:25 | -5.59619 | 39.22822 | 35948 ft | 450 kts | 147° |
| 2026-05-04 12:26 | -5.65028 | 39.26015 | 35947 ft | 451 kts | 147° |
| 2026-05-04 12:26 | -5.70400 | 39.29187 | 35947 ft | 451 kts | 147° |
| 2026-05-04 12:27 | -5.75811 | 39.32382 | 35950 ft | 451 kts | 147° |
| 2026-05-04 12:27 | -5.81217 | 39.35576 | 35948 ft | 451 kts | 147° |
| 2026-05-04 12:28 | -5.86625 | 39.38771 | 35952 ft | 451 kts | 147° |
| 2026-05-04 12:28 | -5.92029 | 39.41992 | 35946 ft | 453 kts | 147° |
| 2026-05-04 12:29 | -5.97434 | 39.45239 | 35946 ft | 453 kts | 147° |
| 2026-05-04 12:29 | -6.02841 | 39.48484 | 35946 ft | 453 kts | 147° |
| 2026-05-04 12:30 | -6.08248 | 39.51730 | 35948 ft | 453 kts | 147° |
| 2026-05-04 12:30 | -6.13651 | 39.54972 | 35955 ft | 453 kts | 147° |
| 2026-05-04 12:31 | -6.19051 | 39.58214 | 35957 ft | 453 kts | 147° |
| 2026-05-04 12:31 | -6.24461 | 39.61461 | 35959 ft | 452 kts | 147° |
| 2026-05-04 12:32 | -6.32472 | 39.66477 | 35962 ft | 452 kts | 145° |
| 2026-05-04 12:33 | -6.37785 | 39.69859 | 35961 ft | 452 kts | 146° |
| 2026-05-04 12:33 | -6.43104 | 39.73237 | 35962 ft | 452 kts | 146° |
| 2026-05-04 12:34 | -6.48448 | 39.76593 | 35957 ft | 454 kts | 146° |
| 2026-05-04 12:34 | -6.53828 | 39.79930 | 35955 ft | 454 kts | 146° |
| 2026-05-04 12:35 | -6.59199 | 39.83268 | 35962 ft | 454 kts | 146° |
| 2026-05-04 12:35 | -6.64572 | 39.86610 | 35953 ft | 454 kts | 146° |
| 2026-05-04 12:36 | -6.69945 | 39.89954 | 35954 ft | 454 kts | 146° |
| 2026-05-04 12:36 | -6.75327 | 39.93304 | 35956 ft | 455 kts | 146° |
| 2026-05-04 12:37 | -6.80709 | 39.96656 | 35952 ft | 455 kts | 146° |
| 2026-05-04 12:37 | -6.86093 | 40.00008 | 35951 ft | 455 kts | 146° |
| 2026-05-04 12:38 | -6.91480 | 40.03362 | 35954 ft | 455 kts | 146° |
| 2026-05-04 12:38 | -6.96866 | 40.06718 | 35952 ft | 455 kts | 146° |
| 2026-05-04 12:39 | -7.02260 | 40.10079 | 35951 ft | 456 kts | 146° |
| 2026-05-04 12:39 | -7.07657 | 40.13443 | 35951 ft | 456 kts | 146° |
| 2026-05-04 12:40 | -7.13055 | 40.16808 | 35951 ft | 456 kts | 146° |
| 2026-05-04 12:40 | -7.18450 | 40.20173 | 35950 ft | 456 kts | 146° |
| 2026-05-04 12:41 | -7.23850 | 40.23542 | 35951 ft | 456 kts | 146° |
| 2026-05-04 12:41 | -7.29254 | 40.26913 | 35951 ft | 457 kts | 146° |
| 2026-05-04 12:42 | -7.34658 | 40.30286 | 35948 ft | 457 kts | 146° |
| 2026-05-04 12:42 | -7.40028 | 40.33639 | 35948 ft | 457 kts | 146° |
| 2026-05-04 12:43 | -7.45433 | 40.37015 | 35948 ft | 457 kts | 146° |
| 2026-05-04 12:43 | -7.50837 | 40.40391 | 35947 ft | 457 kts | 146° |
| 2026-05-04 12:44 | -7.56251 | 40.43775 | 35946 ft | 459 kts | 146° |
| 2026-05-04 12:44 | -7.61671 | 40.47163 | 35948 ft | 458 kts | 146° |
| 2026-05-04 12:45 | -7.67087 | 40.50549 | 35946 ft | 458 kts | 146° |
| 2026-05-04 12:45 | -7.72498 | 40.53934 | 35948 ft | 458 kts | 146° |
| 2026-05-04 12:46 | -7.77912 | 40.57321 | 35945 ft | 458 kts | 146° |
| 2026-05-04 12:46 | -7.83330 | 40.60713 | 35943 ft | 459 kts | 146° |
| 2026-05-04 12:47 | -7.88690 | 40.64201 | 35945 ft | 458 kts | 145° |
| 2026-05-04 12:47 | -7.94039 | 40.67701 | 35946 ft | 458 kts | 145° |
| 2026-05-04 12:48 | -7.99395 | 40.71198 | 35946 ft | 458 kts | 145° |
| 2026-05-04 12:48 | -8.04747 | 40.74690 | 35946 ft | 458 kts | 145° |
| 2026-05-04 12:49 | -8.10111 | 40.78190 | 35947 ft | 460 kts | 145° |
| 2026-05-04 12:49 | -8.15478 | 40.81694 | 35951 ft | 459 kts | 146° |
| 2026-05-04 12:50 | -8.20857 | 40.85183 | 35951 ft | 460 kts | 147° |
| 2026-05-04 12:50 | -8.26316 | 40.88540 | 35950 ft | 460 kts | 147° |
| 2026-05-04 12:51 | -8.31775 | 40.91912 | 35946 ft | 460 kts | 147° |
| 2026-05-04 12:51 | -8.37234 | 40.95293 | 35948 ft | 460 kts | 147° |
| 2026-05-04 12:52 | -8.42653 | 40.98653 | 35948 ft | 460 kts | 147° |
| 2026-05-04 12:52 | -8.48108 | 41.02036 | 35948 ft | 460 kts | 147° |
| 2026-05-04 12:53 | -8.53564 | 41.05421 | 35951 ft | 460 kts | 147° |
| 2026-05-04 12:53 | -8.59016 | 41.08806 | 35949 ft | 459 kts | 147° |
| 2026-05-04 12:54 | -8.64461 | 41.12188 | 35949 ft | 459 kts | 147° |
| 2026-05-04 12:54 | -8.69914 | 41.15576 | 35950 ft | 461 kts | 147° |
| 2026-05-04 12:55 | -8.75373 | 41.18967 | 35947 ft | 460 kts | 147° |
| 2026-05-04 12:55 | -8.80822 | 41.22355 | 35947 ft | 461 kts | 147° |
| 2026-05-04 12:56 | -8.86285 | 41.25752 | 35948 ft | 461 kts | 147° |
| 2026-05-04 12:56 | -8.91743 | 41.29146 | 35951 ft | 460 kts | 147° |
| 2026-05-04 12:57 | -8.97196 | 41.32539 | 35951 ft | 460 kts | 147° |
| 2026-05-04 12:57 | -9.02652 | 41.35935 | 35952 ft | 460 kts | 147° |
| 2026-05-04 12:58 | -9.08092 | 41.39323 | 35951 ft | 459 kts | 147° |
| 2026-05-04 12:58 | -9.13535 | 41.42714 | 35949 ft | 460 kts | 147° |
| 2026-05-04 12:59 | -9.18978 | 41.46108 | 35951 ft | 460 kts | 147° |
| 2026-05-04 12:59 | -9.24430 | 41.49505 | 35952 ft | 460 kts | 147° |
| 2026-05-04 13:00 | -9.29875 | 41.52903 | 35952 ft | 460 kts | 147° |
| 2026-05-04 13:00 | -9.35328 | 41.56305 | 35949 ft | 461 kts | 147° |
| 2026-05-04 13:01 | -9.40791 | 41.59714 | 35951 ft | 461 kts | 147° |
| 2026-05-04 13:01 | -9.46237 | 41.63113 | 35952 ft | 459 kts | 147° |
| 2026-05-04 13:02 | -9.51681 | 41.66515 | 35953 ft | 460 kts | 147° |
| 2026-05-04 13:02 | -9.57126 | 41.69915 | 35949 ft | 459 kts | 147° |
| 2026-05-04 13:03 | -9.62558 | 41.73311 | 35952 ft | 459 kts | 147° |
| 2026-05-04 13:03 | -9.67960 | 41.76689 | 35956 ft | 459 kts | 147° |
| 2026-05-04 13:04 | -9.73418 | 41.80103 | 35953 ft | 461 kts | 147° |
| 2026-05-04 13:04 | -9.78853 | 41.83516 | 35951 ft | 461 kts | 147° |
| 2026-05-04 13:05 | -9.84312 | 41.86928 | 35955 ft | 460 kts | 147° |
| 2026-05-04 13:05 | -9.88880 | 41.89786 | 35953 ft | 462 kts | 147° |
| 2026-05-04 13:06 | -9.94310 | 41.93185 | 35957 ft | 461 kts | 147° |
| 2026-05-04 13:06 | -9.99766 | 41.96605 | 35958 ft | 462 kts | 147° |
| 2026-05-04 13:07 | -10.05262 | 42.00050 | 35954 ft | 460 kts | 147° |
| 2026-05-04 13:07 | -10.10662 | 42.03437 | 35955 ft | 459 kts | 147° |
| 2026-05-04 13:08 | -10.16127 | 42.06868 | 35959 ft | 463 kts | 147° |
| 2026-05-04 13:08 | -10.21603 | 42.10303 | 35959 ft | 463 kts | 147° |
| 2026-05-04 13:09 | -10.27069 | 42.13737 | 35957 ft | 462 kts | 147° |
| 2026-05-04 13:09 | -10.32547 | 42.17179 | 35958 ft | 463 kts | 147° |
| 2026-05-04 13:10 | -10.38022 | 42.20620 | 35957 ft | 463 kts | 147° |
| 2026-05-04 13:10 | -10.43498 | 42.24063 | 35956 ft | 462 kts | 147° |
| 2026-05-04 13:11 | -10.48979 | 42.27510 | 35958 ft | 463 kts | 147° |
| 2026-05-04 13:11 | -10.54450 | 42.30953 | 35958 ft | 463 kts | 147° |
| 2026-05-04 13:12 | -10.59918 | 42.34395 | 35956 ft | 462 kts | 147° |
| 2026-05-04 13:12 | -10.65401 | 42.37850 | 35957 ft | 465 kts | 148° |
| 2026-05-04 13:13 | -10.70887 | 42.41305 | 35956 ft | 464 kts | 148° |
| 2026-05-04 13:13 | -10.75985 | 42.45271 | 35962 ft | 462 kts | 134° |
| 2026-05-04 13:14 | -10.80381 | 42.50046 | 35957 ft | 462 kts | 133° |
| 2026-05-04 13:14 | -10.84775 | 42.54836 | 35956 ft | 463 kts | 133° |
| 2026-05-04 13:15 | -10.89184 | 42.59639 | 35960 ft | 465 kts | 133° |
| 2026-05-04 13:15 | -10.93595 | 42.64446 | 35959 ft | 465 kts | 133° |
| 2026-05-04 13:16 | -10.98006 | 42.69252 | 35956 ft | 465 kts | 133° |
| 2026-05-04 13:16 | -11.02419 | 42.74061 | 35957 ft | 465 kts | 133° |
| 2026-05-04 13:17 | -11.06831 | 42.78873 | 35957 ft | 465 kts | 133° |
| 2026-05-04 13:17 | -11.11258 | 42.83704 | 35957 ft | 468 kts | 133° |
| 2026-05-04 13:18 | -11.15664 | 42.88514 | 35959 ft | 467 kts | 133° |
| 2026-05-04 13:18 | -11.20098 | 42.93356 | 35960 ft | 468 kts | 133° |
| 2026-05-04 13:19 | -11.24532 | 42.98201 | 35957 ft | 467 kts | 133° |
| 2026-05-04 13:19 | -11.28964 | 43.03046 | 35954 ft | 467 kts | 133° |
| 2026-05-04 13:20 | -11.33389 | 43.07887 | 35957 ft | 466 kts | 133° |
| 2026-05-04 13:20 | -11.37806 | 43.12720 | 35948 ft | 466 kts | 133° |
| 2026-05-04 13:21 | -11.42228 | 43.17561 | 35945 ft | 466 kts | 133° |
| 2026-05-04 13:21 | -11.46648 | 43.22403 | 35941 ft | 466 kts | 133° |
| 2026-05-04 13:22 | -11.51063 | 43.27248 | 35940 ft | 466 kts | 130° |
| 2026-05-04 13:22 | -11.54521 | 43.32838 | 35949 ft | 468 kts | 119° |
| 2026-05-04 13:23 | -11.57754 | 43.38605 | 35944 ft | 468 kts | 120° |
| 2026-05-04 13:23 | -11.61050 | 43.44339 | 35948 ft | 469 kts | 120° |
| 2026-05-04 13:24 | -11.64365 | 43.50065 | 35950 ft | 468 kts | 120° |
| 2026-05-04 13:24 | -11.67683 | 43.55785 | 35958 ft | 468 kts | 121° |
| 2026-05-04 13:25 | -11.72644 | 43.64332 | 35961 ft | 470 kts | 121° |
| 2026-05-04 13:25 | -11.75975 | 43.70077 | 35959 ft | 470 kts | 121° |
| 2026-05-04 13:26 | -11.79311 | 43.75832 | 35361 ft | 475 kts | 120° |
| 2026-05-04 13:26 | -11.81008 | 43.78768 | 34168 ft | 485 kts | 120° |
| 2026-05-04 13:26 | -11.82701 | 43.81698 | 33668 ft | 474 kts | 120° |
| 2026-05-04 13:27 | -11.84367 | 43.84577 | 32976 ft | 467 kts | 120° |
| 2026-05-04 13:27 | -11.86003 | 43.87406 | 32370 ft | 459 kts | 120° |
| 2026-05-04 13:27 | -11.87617 | 43.90196 | 31780 ft | 452 kts | 120° |
| 2026-05-04 13:27 | -11.89203 | 43.92940 | 31158 ft | 446 kts | 120° |
| 2026-05-04 13:28 | -11.90767 | 43.95646 | 30596 ft | 439 kts | 120° |
| 2026-05-04 13:28 | -11.92315 | 43.98326 | 29983 ft | 438 kts | 120° |
| 2026-05-04 13:28 | -11.93862 | 44.01004 | 29433 ft | 439 kts | 120° |
| 2026-05-04 13:28 | -11.95424 | 44.03709 | 28825 ft | 447 kts | 120° |
| 2026-05-04 13:29 | -11.97010 | 44.06455 | 28243 ft | 448 kts | 120° |
| 2026-05-04 13:29 | -11.98589 | 44.09188 | 27631 ft | 445 kts | 120° |
| 2026-05-04 13:29 | -12.00152 | 44.11895 | 27047 ft | 440 kts | 120° |
| 2026-05-04 13:29 | -12.01697 | 44.14572 | 26465 ft | 434 kts | 120° |
| 2026-05-04 13:30 | -12.03221 | 44.17214 | 25899 ft | 429 kts | 120° |
| 2026-05-04 13:30 | -12.04728 | 44.19825 | 25335 ft | 424 kts | 120° |
| 2026-05-04 13:30 | -12.06219 | 44.22410 | 24772 ft | 420 kts | 120° |
| 2026-05-04 13:30 | -12.07694 | 44.24969 | 24220 ft | 416 kts | 120° |
| 2026-05-04 13:31 | -12.09156 | 44.27505 | 23666 ft | 412 kts | 120° |
| 2026-05-04 13:31 | -12.10603 | 44.30015 | 23089 ft | 407 kts | 120° |
| 2026-05-04 13:31 | -12.12028 | 44.32488 | 22585 ft | 402 kts | 120° |
| 2026-05-04 13:31 | -12.13445 | 44.34949 | 22045 ft | 400 kts | 120° |
| 2026-05-04 13:32 | -12.14851 | 44.37389 | 21510 ft | 397 kts | 120° |
| 2026-05-04 13:32 | -12.16247 | 44.39813 | 20998 ft | 394 kts | 120° |
| 2026-05-04 13:32 | -12.17630 | 44.42215 | 20461 ft | 391 kts | 120° |
| 2026-05-04 13:32 | -12.19005 | 44.44596 | 19956 ft | 387 kts | 120° |
| 2026-05-04 13:33 | -12.20345 | 44.46925 | 19450 ft | 383 kts | 120° |
| 2026-05-04 13:33 | -12.21689 | 44.49258 | 18942 ft | 379 kts | 120° |
| 2026-05-04 13:33 | -12.23019 | 44.51569 | 18442 ft | 377 kts | 120° |
| 2026-05-04 13:33 | -12.24341 | 44.53872 | 17912 ft | 373 kts | 120° |
| 2026-05-04 13:34 | -12.25644 | 44.56139 | 17455 ft | 368 kts | 119° |
| 2026-05-04 13:34 | -12.26937 | 44.58388 | 16962 ft | 366 kts | 119° |
| 2026-05-04 13:34 | -12.28222 | 44.60622 | 16474 ft | 363 kts | 119° |
| 2026-05-04 13:34 | -12.29498 | 44.62842 | 15999 ft | 361 kts | 119° |
| 2026-05-04 13:35 | -12.30766 | 44.65048 | 15507 ft | 359 kts | 119° |
| 2026-05-04 13:35 | -12.33269 | 44.69404 | 14567 ft | 350 kts | 119° |
| 2026-05-04 13:35 | -12.34488 | 44.71525 | 14103 ft | 342 kts | 119° |
| 2026-05-04 13:36 | -12.35680 | 44.73600 | 13638 ft | 335 kts | 118° |
| 2026-05-04 13:36 | -12.36845 | 44.75631 | 13205 ft | 327 kts | 119° |
| 2026-05-04 13:36 | -12.37983 | 44.77612 | 12785 ft | 320 kts | 119° |
| 2026-05-04 13:36 | -12.39097 | 44.79554 | 12360 ft | 314 kts | 119° |
| 2026-05-04 13:37 | -12.40191 | 44.81461 | 11946 ft | 308 kts | 119° |
| 2026-05-04 13:37 | -12.41267 | 44.83338 | 11539 ft | 303 kts | 119° |
| 2026-05-04 13:37 | -12.42327 | 44.85186 | 11136 ft | 299 kts | 119° |
| 2026-05-04 13:37 | -12.43022 | 44.86397 | 10879 ft | 297 kts | 119° |
| 2026-05-04 13:38 | -12.44409 | 44.88818 | 10357 ft | 293 kts | 119° |
| 2026-05-04 13:38 | -12.45437 | 44.90610 | 9970 ft | 291 kts | 120° |
| 2026-05-04 13:38 | -12.46456 | 44.92387 | 9562 ft | 288 kts | 120° |
| 2026-05-04 13:38 | -12.47463 | 44.94143 | 9211 ft | 284 kts | 120° |
| 2026-05-04 13:39 | -12.48458 | 44.95879 | 8839 ft | 282 kts | 120° |
| 2026-05-04 13:39 | -12.49447 | 44.97605 | 8457 ft | 281 kts | 120° |
| 2026-05-04 13:39 | -12.50430 | 44.99320 | 8095 ft | 278 kts | 120° |
| 2026-05-04 13:39 | -12.51407 | 45.01027 | 7715 ft | 277 kts | 120° |
| 2026-05-04 13:40 | -12.52377 | 45.02720 | 7354 ft | 275 kts | 120° |
| 2026-05-04 13:40 | -12.53343 | 45.04405 | 6991 ft | 274 kts | 120° |
| 2026-05-04 13:40 | -12.54302 | 45.06083 | 6620 ft | 272 kts | 120° |
| 2026-05-04 13:40 | -12.55257 | 45.07749 | 6248 ft | 270 kts | 120° |
| 2026-05-04 13:41 | -12.56202 | 45.09400 | 5887 ft | 268 kts | 120° |
| 2026-05-04 13:41 | -12.57139 | 45.11037 | 5555 ft | 266 kts | 120° |
| 2026-05-04 13:41 | -12.58074 | 45.12673 | 5202 ft | 266 kts | 120° |
| 2026-05-04 13:42 | -12.60094 | 45.15823 | 4474 ft | 266 kts | 140° |
| 2026-05-04 13:42 | -12.61630 | 45.16859 | 4167 ft | 265 kts | 151° |
| 2026-05-04 13:42 | -12.63255 | 45.17767 | 3791 ft | 267 kts | 150° |
| 2026-05-04 13:42 | -12.64860 | 45.18699 | 3431 ft | 265 kts | 150° |
| 2026-05-04 13:43 | -12.66454 | 45.19636 | 3055 ft | 263 kts | 150° |
| 2026-05-04 13:43 | -12.68033 | 45.20569 | 2700 ft | 261 kts | 150° |
| 2026-05-04 13:43 | -12.69598 | 45.21497 | 2343 ft | 259 kts | 150° |
| 2026-05-04 13:43 | -12.71155 | 45.22416 | 1983 ft | 258 kts | 150° |
| 2026-05-04 13:44 | -12.72703 | 45.23332 | 1644 ft | 256 kts | 150° |
| 2026-05-04 13:44 | -12.74245 | 45.24243 | 1274 ft | 256 kts | 149° |
| 2026-05-04 13:44 | -12.75777 | 45.25159 | 977 ft | 255 kts | 149° |
| 2026-05-04 13:44 | -12.77322 | 45.26073 | 571 ft | 257 kts | 149° |
| 2026-05-04 13:45 | -12.78845 | 45.26974 | 350 ft | 245 kts | 149° |
| 2026-05-04 13:45 | -12.80177 | 45.27781 | 614 ft | 211 kts | 148° |
| 2026-05-04 13:45 | -12.81402 | 45.28531 | 762 ft | 192 kts | 149° |
| 2026-05-04 13:45 | -12.82514 | 45.29024 | 940 ft | 159 kts | 172° |
| 2026-05-04 13:46 | -12.83499 | 45.28688 | 1028 ft | 153 kts | 224° |
| 2026-05-04 13:46 | -12.83854 | 45.27660 | 930 ft | 162 kts | 272° |
| 2026-05-04 13:46 | -12.83408 | 45.26619 | 898 ft | 163 kts | 313° |
| 2026-05-04 13:46 | -12.82508 | 45.26044 | 1004 ft | 143 kts | 336° |
| 2026-05-04 13:47 | -12.81615 | 45.25651 | 924 ft | 141 kts | 339° |
| 2026-05-04 13:47 | -12.80711 | 45.25288 | 879 ft | 138 kts | 340° |
| 2026-05-04 13:47 | -12.79824 | 45.24967 | 914 ft | 135 kts | 348° |
| 2026-05-04 13:47 | -12.78923 | 45.25049 | 891 ft | 127 kts | 44° |
| 2026-05-04 13:48 | -12.78532 | 45.25790 | 675 ft | 122 kts | 95° |
| 2026-05-04 13:48 | -12.78759 | 45.26587 | 452 ft | 116 kts | 121° |
| 2026-05-04 13:48 | -12.79268 | 45.27196 | 334 ft | 115 kts | 146° |
| 2026-05-04 13:48 | -12.79995 | 45.27662 | 164 ft | 130 kts | 151° |
| 2026-05-04 13:49 | -12.80761 | 45.28110 | 47 ft | 117 kts | 150° |
| 2026-05-04 13:49 | -12.81275 | 45.28416 | 58 ft | 55 kts | 150° |
| 2026-05-04 13:49 | -12.81503 | 45.28535 | 67 ft | 0 kts | 149° |
| 2026-05-04 13:49 | -12.81504 | 45.28543 | 64 ft | 1 kts | 102° |
| 2026-05-04 13:50 | -12.81500 | 45.28545 | 65 ft | 1 kts | 47° |
| 2026-05-04 13:50 | -12.81466 | 45.28531 | 59 ft | 12 kts | 334° |
| 2026-05-04 13:50 | -12.81346 | 45.28460 | 62 ft | 26 kts | 330° |
| 2026-05-04 13:50 | -12.81141 | 45.28340 | 56 ft | 40 kts | 329° |
| 2026-05-04 13:51 | -12.80895 | 45.28194 | 47 ft | 41 kts | 329° |
| 2026-05-04 13:51 | -12.80801 | 45.28139 | 45 ft | 1 kts | 333° |
| 2026-05-04 13:51 | -12.80800 | 45.28138 | 45 ft | 0 kts | 333° |
| 2026-05-04 13:51 | -12.80735 | 45.28099 | 45 ft | 22 kts | 329° |
| 2026-05-04 13:52 | -12.80475 | 45.27976 | 41 ft | 22 kts | 15° |
| 2026-05-04 13:52 | -12.80408 | 45.28053 | 45 ft | 22 kts | 61° |
| 2026-05-04 13:52 | -12.80406 | 45.28146 | 46 ft | 12 kts | 148° |
| 2026-05-04 13:53 | -12.80426 | 45.28188 | 46 ft | 6 kts | 81° |
| 2026-05-04 13:53 | -12.80401 | 45.28239 | 43 ft | 0 kts | 60° |